createdAt,value
2017-06-01T00:00:56.093Z,0
2017-06-01T00:01:57.333Z,0
2017-06-01T00:02:58.723Z,0
2017-06-01T00:03:59.868Z,0
2017-06-01T00:05:01.121Z,0
2017-06-01T00:06:02.356Z,0
2017-06-01T00:07:03.645Z,0
2017-06-01T00:08:04.864Z,0
2017-06-01T00:09:06.112Z,0
2017-06-01T00:10:07.361Z,0
2017-06-01T00:11:08.824Z,0
2017-06-01T00:12:10.338Z,0
2017-06-01T00:13:11.559Z,0
2017-06-01T00:14:12.918Z,0
2017-06-01T00:15:14.148Z,0
2017-06-01T00:16:15.508Z,0
2017-06-01T00:17:16.794Z,0
2017-06-01T00:18:18.045Z,0
2017-06-01T00:19:19.265Z,0
2017-06-01T00:20:20.671Z,0
2017-06-01T00:21:21.822Z,0
2017-06-01T00:22:23.235Z,0
2017-06-01T00:23:24.466Z,0
2017-06-01T00:24:25.683Z,0
2017-06-01T00:25:26.954Z,0
2017-06-01T00:26:28.213Z,0
2017-06-01T00:27:29.494Z,0
2017-06-01T00:28:30.753Z,0
2017-06-01T00:29:31.986Z,0
2017-06-01T00:30:33.248Z,0
2017-06-01T00:31:34.480Z,0
2017-06-01T00:32:35.719Z,0
2017-06-01T00:33:36.963Z,0
2017-06-01T00:34:38.205Z,0
2017-06-01T00:35:39.444Z,0
2017-06-01T00:36:40.725Z,0
2017-06-01T00:37:41.947Z,0
2017-06-01T00:38:43.206Z,0
2017-06-01T00:39:44.452Z,0
2017-06-01T00:40:45.710Z,0
2017-06-01T00:41:46.999Z,0
2017-06-01T00:42:48.231Z,0
2017-06-01T00:43:49.487Z,0
2017-06-01T00:44:50.757Z,0
2017-06-01T00:45:51.985Z,0
2017-06-01T00:46:53.226Z,0
2017-06-01T00:47:54.533Z,0
2017-06-01T00:48:55.789Z,0
2017-06-01T00:49:57.112Z,0
2017-06-01T00:50:58.348Z,0
2017-06-01T00:51:59.581Z,0
2017-06-01T00:53:00.833Z,0
2017-06-01T00:54:02.084Z,0
2017-06-01T00:55:03.337Z,0
2017-06-01T00:56:04.606Z,0
2017-06-01T00:57:05.845Z,0
2017-06-01T00:58:07.137Z,0
2017-06-01T00:59:08.376Z,0
2017-06-01T01:00:09.593Z,0
2017-06-01T01:01:10.834Z,0
2017-06-01T01:02:12.084Z,0
2017-06-01T01:03:13.414Z,0
2017-06-01T01:04:14.671Z,0
2017-06-01T01:05:15.900Z,0
2017-06-01T01:06:17.149Z,0
2017-06-01T01:07:18.386Z,0
2017-06-01T01:08:19.633Z,0
2017-06-01T01:09:20.892Z,0
2017-06-01T01:10:22.133Z,0
2017-06-01T01:11:23.422Z,0
2017-06-01T01:12:24.760Z,0
2017-06-01T01:13:26.000Z,0
2017-06-01T01:14:27.281Z,0
2017-06-01T01:15:28.520Z,0
2017-06-01T01:16:29.791Z,0
2017-06-01T01:17:31.030Z,0
2017-06-01T01:18:32.265Z,0
2017-06-01T01:19:33.542Z,0
2017-06-01T01:20:34.784Z,0
2017-06-01T01:21:36.002Z,0
2017-06-01T01:22:37.297Z,0
2017-06-01T01:23:38.489Z,0
2017-06-01T01:24:39.736Z,0
2017-06-01T01:25:40.978Z,0
2017-06-01T01:26:42.237Z,0
2017-06-01T01:27:43.474Z,0
2017-06-01T01:28:44.715Z,0
2017-06-01T01:29:45.955Z,0
2017-06-01T01:30:47.218Z,0
2017-06-01T01:31:48.451Z,0
2017-06-01T01:32:49.750Z,0
2017-06-01T01:33:51.068Z,0
2017-06-01T01:34:52.311Z,0
2017-06-01T01:35:53.552Z,0
2017-06-01T01:36:54.804Z,0
2017-06-01T01:37:56.023Z,0
2017-06-01T01:38:57.266Z,0
2017-06-01T01:39:58.535Z,0
2017-06-01T01:40:59.781Z,0
2017-06-01T01:42:01.036Z,0
2017-06-01T01:43:02.272Z,0
2017-06-01T01:44:03.507Z,0
2017-06-01T01:45:04.740Z,0
2017-06-01T01:46:05.988Z,0
2017-06-01T01:47:07.300Z,0
2017-06-01T01:48:08.539Z,0
2017-06-01T01:49:09.798Z,0
2017-06-01T01:50:11.093Z,0
2017-06-01T01:51:12.337Z,0
2017-06-01T01:52:13.600Z,0
2017-06-01T01:53:14.824Z,0
2017-06-01T01:54:16.113Z,0
2017-06-01T01:55:17.345Z,0
2017-06-01T01:56:18.582Z,0
2017-06-01T01:57:19.827Z,0
2017-06-01T01:58:21.132Z,0
2017-06-01T01:59:22.370Z,0
2017-06-01T02:00:23.605Z,0
2017-06-01T02:01:24.843Z,0
2017-06-01T02:02:26.084Z,0
2017-06-01T02:03:27.426Z,0
2017-06-01T02:04:28.665Z,0
2017-06-01T02:05:29.939Z,0
2017-06-01T02:06:31.212Z,0
2017-06-01T02:07:32.452Z,0
2017-06-01T02:08:33.686Z,0
2017-06-01T02:09:34.946Z,0
2017-06-01T02:10:36.215Z,0
2017-06-01T02:11:37.488Z,0
2017-06-01T02:12:38.740Z,0
2017-06-01T02:13:39.983Z,0
2017-06-01T02:14:41.260Z,0
2017-06-01T02:15:42.473Z,0
2017-06-01T02:16:43.718Z,0
2017-06-01T02:17:44.981Z,0
2017-06-01T02:18:46.226Z,0
2017-06-01T02:19:47.465Z,0
2017-06-01T02:20:48.737Z,0
2017-06-01T02:21:49.971Z,0
2017-06-01T02:22:51.206Z,0
2017-06-01T02:23:52.463Z,0
2017-06-01T02:24:53.724Z,0
2017-06-01T02:25:55.117Z,0
2017-06-01T02:26:56.364Z,0
2017-06-01T02:27:57.624Z,0
2017-06-01T02:28:58.988Z,0
2017-06-01T02:30:00.251Z,0
2017-06-01T02:31:01.669Z,0
2017-06-01T02:32:02.918Z,0
2017-06-01T02:33:04.154Z,0
2017-06-01T02:34:05.423Z,0
2017-06-01T02:35:06.747Z,0
2017-06-01T02:36:07.910Z,0
2017-06-01T02:37:09.190Z,0
2017-06-01T02:38:10.430Z,0
2017-06-01T02:39:11.689Z,0
2017-06-01T02:40:12.944Z,0
2017-06-01T02:41:14.182Z,0
2017-06-01T02:42:15.415Z,0
2017-06-01T02:43:16.778Z,0
2017-06-01T02:44:18.020Z,0
2017-06-01T02:45:19.279Z,0
2017-06-01T02:46:20.519Z,0
2017-06-01T02:47:21.816Z,0
2017-06-01T02:48:23.060Z,0
2017-06-01T02:49:24.325Z,0
2017-06-01T02:50:25.601Z,0
2017-06-01T02:51:26.855Z,0
2017-06-01T02:52:28.085Z,0
2017-06-01T02:53:29.349Z,0
2017-06-01T02:54:30.590Z,0
2017-06-01T02:55:31.833Z,0
2017-06-01T02:56:33.076Z,0
2017-06-01T02:57:34.319Z,0
2017-06-01T02:58:35.558Z,0
2017-06-01T02:59:36.791Z,0
2017-06-01T03:00:38.048Z,0
2017-06-01T03:01:39.309Z,5
2017-06-01T03:02:40.550Z,5
2017-06-01T03:03:41.787Z,5
2017-06-01T03:04:43.139Z,5
2017-06-01T03:05:44.359Z,5
2017-06-01T03:06:45.594Z,5
2017-06-01T03:07:46.831Z,5
2017-06-01T03:08:48.080Z,5
2017-06-01T03:09:49.321Z,10
2017-06-01T03:10:50.558Z,10
2017-06-01T03:11:51.796Z,10
2017-06-01T03:12:53.053Z,10
2017-06-01T03:13:54.287Z,10
2017-06-01T03:14:55.543Z,10
2017-06-01T03:15:56.811Z,15
2017-06-01T03:16:58.051Z,15
2017-06-01T03:17:59.336Z,15
2017-06-01T03:19:00.597Z,15
2017-06-01T03:20:01.810Z,20
2017-06-01T03:21:03.123Z,20
2017-06-01T03:22:04.366Z,20
2017-06-01T03:23:05.615Z,20
2017-06-01T03:24:06.870Z,25
2017-06-01T03:25:08.106Z,25
2017-06-01T03:26:09.416Z,25
2017-06-01T03:27:10.663Z,30
2017-06-01T03:28:11.965Z,30
2017-06-01T03:29:13.237Z,30
2017-06-01T03:30:14.490Z,35
2017-06-01T03:31:15.767Z,35
2017-06-01T03:32:17.002Z,35
2017-06-01T03:33:18.221Z,40
2017-06-01T03:34:19.487Z,40
2017-06-01T03:35:20.709Z,40
2017-06-01T03:36:22.004Z,45
2017-06-01T03:37:23.257Z,45
2017-06-01T03:38:24.494Z,50
2017-06-01T03:39:25.760Z,50
2017-06-01T03:40:27.100Z,50
2017-06-01T03:41:28.355Z,55
2017-06-01T03:42:29.608Z,55
2017-06-01T03:43:30.873Z,55
2017-06-01T03:44:32.127Z,60
2017-06-01T03:45:33.374Z,60
2017-06-01T03:46:34.623Z,60
2017-06-01T03:47:35.865Z,65
2017-06-01T03:48:37.138Z,65
2017-06-01T03:49:38.385Z,70
2017-06-01T03:50:39.624Z,70
2017-06-01T03:51:40.872Z,75
2017-06-01T03:52:42.120Z,75
2017-06-01T03:53:43.397Z,75
2017-06-01T03:54:44.634Z,80
2017-06-01T03:55:45.876Z,80
2017-06-01T03:56:47.309Z,80
2017-06-01T03:57:48.458Z,85
2017-06-01T03:58:49.714Z,85
2017-06-01T03:59:51.072Z,85
2017-06-01T04:00:52.259Z,85
2017-06-01T04:01:53.547Z,90
2017-06-01T04:02:54.779Z,90
2017-06-01T04:03:56.021Z,95
2017-06-01T04:04:57.339Z,100
2017-06-01T04:05:58.588Z,105
2017-06-01T04:06:59.847Z,115
2017-06-01T04:08:01.080Z,120
2017-06-01T04:09:02.321Z,120
2017-06-01T04:10:03.581Z,125
2017-06-01T04:11:04.791Z,120
2017-06-01T04:12:06.042Z,115
2017-06-01T04:13:07.336Z,115
2017-06-01T04:14:08.577Z,115
2017-06-01T04:15:09.816Z,115
2017-06-01T04:16:11.235Z,120
2017-06-01T04:17:12.385Z,125
2017-06-01T04:18:13.728Z,130
2017-06-01T04:19:14.998Z,125
2017-06-01T04:20:16.212Z,130
2017-06-01T04:21:17.462Z,130
2017-06-01T04:22:18.706Z,140
2017-06-01T04:23:19.942Z,140
2017-06-01T04:24:21.296Z,135
2017-06-01T04:25:22.548Z,135
2017-06-01T04:26:23.838Z,135
2017-06-01T04:27:25.124Z,135
2017-06-01T04:28:26.327Z,140
2017-06-01T04:29:27.565Z,145
2017-06-01T04:30:28.806Z,150
2017-06-01T04:31:30.134Z,150
2017-06-01T04:32:31.448Z,155
2017-06-01T04:33:32.690Z,155
2017-06-01T04:34:33.943Z,165
2017-06-01T04:35:35.297Z,160
2017-06-01T04:36:36.541Z,170
2017-06-01T04:37:37.804Z,180
2017-06-01T04:38:39.058Z,175
2017-06-01T04:39:40.300Z,170
2017-06-01T04:40:41.535Z,160
2017-06-01T04:41:42.810Z,165
2017-06-01T04:42:44.042Z,165
2017-06-01T04:43:45.288Z,170
2017-06-01T04:44:46.524Z,175
2017-06-01T04:45:47.770Z,185
2017-06-01T04:46:49.021Z,195
2017-06-01T04:47:50.300Z,210
2017-06-01T04:48:51.657Z,190
2017-06-01T04:49:52.965Z,195
2017-06-01T04:50:54.229Z,220
2017-06-01T04:51:55.476Z,235
2017-06-01T04:52:56.754Z,270
2017-06-01T04:53:58.003Z,290
2017-06-01T04:54:59.250Z,285
2017-06-01T04:56:00.500Z,260
2017-06-01T04:57:01.801Z,285
2017-06-01T04:58:03.170Z,305
2017-06-01T04:59:04.406Z,350
2017-06-01T05:00:05.648Z,410
2017-06-01T05:01:06.902Z,435
2017-06-01T05:02:08.132Z,450
2017-06-01T05:03:09.692Z,455
2017-06-01T05:04:10.932Z,425
2017-06-01T05:05:12.166Z,375
2017-06-01T05:06:13.515Z,350
2017-06-01T05:07:14.761Z,330
2017-06-01T05:08:16.003Z,335
2017-06-01T05:09:17.243Z,365
2017-06-01T05:10:18.510Z,340
2017-06-01T05:11:19.747Z,310
2017-06-01T05:12:21.037Z,290
2017-06-01T05:13:22.274Z,280
2017-06-01T05:14:23.564Z,295
2017-06-01T05:15:24.810Z,335
2017-06-01T05:16:26.053Z,355
2017-06-01T05:17:27.302Z,330
2017-06-01T05:18:28.538Z,330
2017-06-01T05:19:29.840Z,350
2017-06-01T05:20:31.110Z,390
2017-06-01T05:21:32.366Z,410
2017-06-01T05:22:33.612Z,370
2017-06-01T05:23:34.866Z,400
2017-06-01T05:24:36.118Z,425
2017-06-01T05:25:37.390Z,440
2017-06-01T05:26:38.637Z,495
2017-06-01T05:27:39.880Z,545
2017-06-01T05:28:41.233Z,555
2017-06-01T05:29:42.502Z,485
2017-06-01T05:30:43.751Z,370
2017-06-01T05:31:45.109Z,375
2017-06-01T05:32:46.456Z,485
2017-06-01T05:33:47.785Z,665
2017-06-01T05:34:49.017Z,720
2017-06-01T05:35:50.254Z,855
2017-06-01T05:36:51.575Z,1030
2017-06-01T05:37:52.811Z,1060
2017-06-01T05:38:54.118Z,1050
2017-06-01T05:39:55.381Z,1080
2017-06-01T05:40:56.626Z,1115
2017-06-01T05:41:57.891Z,1065
2017-06-01T05:42:59.138Z,1040
2017-06-01T05:44:00.503Z,1070
2017-06-01T05:45:01.784Z,935
2017-06-01T05:46:03.207Z,975
2017-06-01T05:47:04.531Z,1060
2017-06-01T05:48:05.744Z,1165
2017-06-01T05:49:06.997Z,1255
2017-06-01T05:50:08.252Z,1325
2017-06-01T05:51:09.562Z,1250
2017-06-01T05:52:10.840Z,1250
2017-06-01T05:53:12.059Z,1355
2017-06-01T05:54:13.354Z,1375
2017-06-01T05:55:14.606Z,1380
2017-06-01T05:56:15.855Z,1410
2017-06-01T05:57:17.109Z,1420
2017-06-01T05:58:18.369Z,1445
2017-06-01T05:59:19.633Z,1435
2017-06-01T06:00:20.875Z,1460
2017-06-01T06:01:22.141Z,1475
2017-06-01T06:02:23.479Z,1540
2017-06-01T06:03:24.756Z,1595
2017-06-01T06:04:26.040Z,1565
2017-06-01T06:05:27.306Z,1550
2017-06-01T06:06:28.543Z,1600
2017-06-01T06:07:29.802Z,1610
2017-06-01T06:08:31.053Z,1440
2017-06-01T06:09:32.367Z,1445
2017-06-01T06:10:33.735Z,1185
2017-06-01T06:11:35.004Z,1230
2017-06-01T06:12:36.259Z,1500
2017-06-01T06:13:37.508Z,1630
2017-06-01T06:14:38.891Z,1710
2017-06-01T06:15:40.150Z,1705
2017-06-01T06:16:41.430Z,1710
2017-06-01T06:17:42.680Z,1770
2017-06-01T06:18:43.927Z,1810
2017-06-01T06:19:45.194Z,1795
2017-06-01T06:20:46.470Z,1770
2017-06-01T06:21:47.702Z,1820
2017-06-01T06:22:48.955Z,1885
2017-06-01T06:23:50.227Z,1915
2017-06-01T06:24:51.596Z,1945
2017-06-01T06:25:52.891Z,2000
2017-06-01T06:26:54.131Z,2010
2017-06-01T06:27:55.384Z,1985
2017-06-01T06:28:56.633Z,2005
2017-06-01T06:29:57.887Z,2040
2017-06-01T06:30:59.218Z,2030
2017-06-01T06:32:00.565Z,2025
2017-06-01T06:33:01.851Z,2105
2017-06-01T06:34:03.092Z,2165
2017-06-01T06:35:04.342Z,2180
2017-06-01T06:36:05.587Z,2160
2017-06-01T06:37:06.843Z,2185
2017-06-01T06:38:08.205Z,2200
2017-06-01T06:39:09.508Z,2240
2017-06-01T06:40:10.757Z,2265
2017-06-01T06:41:11.985Z,2240
2017-06-01T06:42:13.251Z,2375
2017-06-01T06:43:14.500Z,2390
2017-06-01T06:44:15.761Z,2270
2017-06-01T06:45:17.030Z,2420
2017-06-01T06:46:18.341Z,2410
2017-06-01T06:47:19.586Z,2405
2017-06-01T06:48:20.869Z,2450
2017-06-01T06:49:22.116Z,2480
2017-06-01T06:50:23.432Z,2480
2017-06-01T06:51:24.699Z,2510
2017-06-01T06:52:26.094Z,2435
2017-06-01T06:53:27.351Z,2445
2017-06-01T06:54:28.612Z,2445
2017-06-01T06:55:29.980Z,2555
2017-06-01T06:56:31.219Z,2600
2017-06-01T06:57:32.500Z,2555
2017-06-01T06:58:33.776Z,2515
2017-06-01T06:59:35.014Z,2520
2017-06-01T07:00:36.265Z,2510
2017-06-01T07:01:37.588Z,2530
2017-06-01T07:02:38.885Z,2440
2017-06-01T07:03:40.154Z,2430
2017-06-01T07:04:41.431Z,2395
2017-06-01T07:05:42.698Z,2345
2017-06-01T07:06:43.934Z,2290
2017-06-01T07:07:45.445Z,2165
2017-06-01T07:08:46.739Z,1990
2017-06-01T07:09:48.009Z,1890
2017-06-01T07:10:49.265Z,1855
2017-06-01T07:11:50.540Z,1895
2017-06-01T07:12:51.806Z,1975
2017-06-01T07:13:53.064Z,2045
2017-06-01T07:14:54.361Z,2125
2017-06-01T07:15:55.619Z,2205
2017-06-01T07:16:56.878Z,2380
2017-06-01T07:17:58.129Z,2545
2017-06-01T07:18:59.428Z,2555
2017-06-01T07:20:00.749Z,2620
2017-06-01T07:21:01.994Z,2685
2017-06-01T07:22:03.319Z,2710
2017-06-01T07:23:04.602Z,2740
2017-06-01T07:24:05.855Z,2825
2017-06-01T07:25:07.102Z,2795
2017-06-01T07:26:08.381Z,2775
2017-06-01T07:27:09.627Z,2760
2017-06-01T07:28:10.913Z,2755
2017-06-01T07:29:12.147Z,2885
2017-06-01T07:30:13.406Z,2865
2017-06-01T07:31:14.692Z,2805
2017-06-01T07:32:15.943Z,2760
2017-06-01T07:33:17.208Z,2790
2017-06-01T07:34:18.462Z,2750
2017-06-01T07:35:19.736Z,2735
2017-06-01T07:36:20.989Z,2715
2017-06-01T07:37:22.244Z,2840
2017-06-01T07:38:23.526Z,2895
2017-06-01T07:39:24.850Z,2740
2017-06-01T07:40:26.107Z,2655
2017-06-01T07:41:27.368Z,2580
2017-06-01T07:42:28.627Z,2495
2017-06-01T07:43:29.890Z,2555
2017-06-01T07:44:31.201Z,2585
2017-06-01T07:45:32.504Z,2525
2017-06-01T07:46:33.792Z,2550
2017-06-01T07:47:35.034Z,2660
2017-06-01T07:48:36.340Z,2735
2017-06-01T07:49:37.603Z,2710
2017-06-01T07:50:38.900Z,2800
2017-06-01T07:51:40.257Z,2920
2017-06-01T07:52:41.503Z,2955
2017-06-01T07:53:42.757Z,2905
2017-06-01T07:54:44.023Z,2945
2017-06-01T07:55:45.308Z,2955
2017-06-01T07:56:46.572Z,2925
2017-06-01T07:57:47.825Z,3020
2017-06-01T07:58:49.101Z,3080
2017-06-01T07:59:50.359Z,3090
2017-06-01T08:00:51.623Z,3125
2017-06-01T08:01:52.879Z,3050
2017-06-01T08:02:54.246Z,3020
2017-06-01T08:03:55.519Z,2980
2017-06-01T08:04:56.778Z,2930
2017-06-01T08:05:58.033Z,2860
2017-06-01T08:06:59.367Z,3100
2017-06-01T08:08:00.575Z,3155
2017-06-01T08:09:01.870Z,3155
2017-06-01T08:10:03.153Z,3095
2017-06-01T08:11:04.402Z,2970
2017-06-01T08:12:05.707Z,3015
2017-06-01T08:13:07.010Z,3110
2017-06-01T08:14:08.256Z,3145
2017-06-01T08:15:09.552Z,3280
2017-06-01T08:16:10.805Z,3380
2017-06-01T08:17:12.118Z,3205
2017-06-01T08:18:13.396Z,3380
2017-06-01T08:19:14.654Z,3270
2017-06-01T08:20:16.012Z,3090
2017-06-01T08:21:17.343Z,3170
2017-06-01T08:22:18.618Z,3170
2017-06-01T08:23:19.881Z,3300
2017-06-01T08:24:21.146Z,3280
2017-06-01T08:25:22.404Z,3235
2017-06-01T08:26:23.701Z,3085
2017-06-01T08:27:24.948Z,3210
2017-06-01T08:28:26.248Z,3255
2017-06-01T08:29:27.553Z,3125
2017-06-01T08:30:28.820Z,3030
2017-06-01T08:31:30.084Z,3115
2017-06-01T08:32:31.405Z,3345
2017-06-01T08:33:32.793Z,3335
2017-06-01T08:34:34.057Z,3240
2017-06-01T08:35:35.325Z,3290
2017-06-01T08:36:36.680Z,3315
2017-06-01T08:37:37.855Z,3310
2017-06-01T08:38:39.196Z,3295
2017-06-01T08:39:40.464Z,3375
2017-06-01T08:40:41.752Z,3585
2017-06-01T08:41:43.022Z,3545
2017-06-01T08:42:44.280Z,3375
2017-06-01T08:43:45.568Z,3420
2017-06-01T08:44:46.810Z,3350
2017-06-01T08:45:48.099Z,3215
2017-06-01T08:46:49.344Z,3340
2017-06-01T08:47:50.623Z,3580
2017-06-01T08:48:51.866Z,3765
2017-06-01T08:49:53.160Z,3570
2017-06-01T08:50:54.445Z,3510
2017-06-01T08:51:55.693Z,3650
2017-06-01T08:52:56.951Z,3730
2017-06-01T08:53:58.207Z,3750
2017-06-01T08:54:59.478Z,3625
2017-06-01T08:56:00.753Z,3620
2017-06-01T08:57:02.124Z,3720
2017-06-01T08:58:03.385Z,3700
2017-06-01T08:59:04.680Z,3715
2017-06-01T09:00:05.929Z,3655
2017-06-01T09:01:07.260Z,3555
2017-06-01T09:02:08.489Z,3525
2017-06-01T09:03:09.808Z,3630
2017-06-01T09:04:11.073Z,3645
2017-06-01T09:05:12.375Z,3660
2017-06-01T09:06:13.656Z,3610
2017-06-01T09:07:15.073Z,3725
2017-06-01T09:08:16.250Z,3655
2017-06-01T09:09:17.606Z,3595
2017-06-01T09:10:18.886Z,3715
2017-06-01T09:11:20.145Z,3800
2017-06-01T09:12:21.470Z,3820
2017-06-01T09:13:22.734Z,3970
2017-06-01T09:14:23.992Z,3855
2017-06-01T09:15:25.390Z,3840
2017-06-01T09:16:26.633Z,3975
2017-06-01T09:17:27.882Z,3980
2017-06-01T09:18:29.155Z,3890
2017-06-01T09:19:30.445Z,3960
2017-06-01T09:20:31.722Z,3810
2017-06-01T09:21:32.985Z,3820
2017-06-01T09:22:34.239Z,3920
2017-06-01T09:23:35.559Z,3700
2017-06-01T09:24:36.802Z,3940
2017-06-01T09:25:38.075Z,4025
2017-06-01T09:26:39.352Z,4140
2017-06-01T09:27:40.607Z,4190
2017-06-01T09:28:41.872Z,4140
2017-06-01T09:29:43.135Z,4265
2017-06-01T09:30:44.412Z,4135
2017-06-01T09:31:45.671Z,4135
2017-06-01T09:32:46.977Z,4210
2017-06-01T09:33:48.271Z,4185
2017-06-01T09:34:49.630Z,4110
2017-06-01T09:35:50.891Z,4145
2017-06-01T09:36:52.154Z,4265
2017-06-01T09:37:53.446Z,4195
2017-06-01T09:38:54.714Z,4255
2017-06-01T09:39:55.993Z,4405
2017-06-01T09:40:57.272Z,4355
2017-06-01T09:41:58.530Z,4415
2017-06-01T09:42:59.831Z,4320
2017-06-01T09:44:01.236Z,4220
2017-06-01T09:45:02.521Z,4300
2017-06-01T09:46:03.783Z,4445
2017-06-01T09:47:05.038Z,4455
2017-06-01T09:48:06.323Z,4305
2017-06-01T09:49:07.583Z,4290
2017-06-01T09:50:08.862Z,4305
2017-06-01T09:51:10.159Z,4280
2017-06-01T09:52:11.414Z,4260
2017-06-01T09:53:12.699Z,4170
2017-06-01T09:54:13.938Z,3930
2017-06-01T09:55:15.201Z,3920
2017-06-01T09:56:16.494Z,4385
2017-06-01T09:57:17.768Z,4430
2017-06-01T09:58:19.037Z,4185
2017-06-01T09:59:20.303Z,4140
2017-06-01T10:00:21.672Z,4220
2017-06-01T10:01:22.945Z,4540
2017-06-01T10:02:24.212Z,4505
2017-06-01T10:03:25.506Z,4635
2017-06-01T10:04:26.764Z,4625
2017-06-01T10:05:28.011Z,4550
2017-06-01T10:06:29.299Z,4250
2017-06-01T10:07:30.545Z,3650
2017-06-01T10:08:31.912Z,3385
2017-06-01T10:09:33.233Z,3220
2017-06-01T10:10:34.504Z,3265
2017-06-01T10:11:35.775Z,3280
2017-06-01T10:12:37.138Z,3260
2017-06-01T10:13:38.412Z,3395
2017-06-01T10:14:39.682Z,3185
2017-06-01T10:15:40.973Z,3045
2017-06-01T10:16:42.225Z,3345
2017-06-01T10:17:43.507Z,3235
2017-06-01T10:18:44.819Z,3215
2017-06-01T10:19:46.104Z,3180
2017-06-01T10:20:47.409Z,3135
2017-06-01T10:21:48.675Z,3125
2017-06-01T10:22:49.929Z,3035
2017-06-01T10:23:51.234Z,2895
2017-06-01T10:24:52.457Z,2910
2017-06-01T10:25:53.727Z,3025
2017-06-01T10:26:55.015Z,3000
2017-06-01T10:27:56.286Z,3005
2017-06-01T10:28:57.551Z,3020
2017-06-01T10:29:58.824Z,3030
2017-06-01T10:31:00.184Z,2875
2017-06-01T10:32:01.453Z,2235
2017-06-01T10:33:02.731Z,775
2017-06-01T10:34:04.021Z,395
2017-06-01T10:35:05.345Z,365
2017-06-01T10:36:06.609Z,345
2017-06-01T10:37:07.897Z,340
2017-06-01T10:38:09.142Z,335
2017-06-01T10:39:10.405Z,335
2017-06-01T10:40:11.683Z,335
2017-06-01T10:41:12.946Z,330
2017-06-01T10:42:14.208Z,335
2017-06-01T10:43:15.466Z,330
2017-06-01T10:44:16.722Z,325
2017-06-01T10:45:17.999Z,325
2017-06-01T10:46:19.256Z,320
2017-06-01T10:47:20.520Z,320
2017-06-01T10:48:21.788Z,320
2017-06-01T10:49:23.062Z,315
2017-06-01T10:50:24.296Z,315
2017-06-01T10:51:25.570Z,320
2017-06-01T10:52:26.791Z,315
2017-06-01T10:53:28.063Z,310
2017-06-01T10:54:29.428Z,310
2017-06-01T10:55:30.690Z,305
2017-06-01T10:56:31.979Z,305
2017-06-01T10:57:33.230Z,305
2017-06-01T10:58:34.476Z,300
2017-06-01T10:59:35.742Z,300
2017-06-01T11:00:36.993Z,300
2017-06-01T11:01:38.245Z,300
2017-06-01T11:02:39.510Z,305
2017-06-01T11:03:40.762Z,305
2017-06-01T11:04:42.082Z,300
2017-06-01T11:05:43.330Z,300
2017-06-01T11:06:44.577Z,300
2017-06-01T11:07:45.896Z,300
2017-06-01T11:08:47.259Z,300
2017-06-01T11:09:48.486Z,305
2017-06-01T11:10:49.760Z,305
2017-06-01T11:11:50.993Z,305
2017-06-01T11:12:52.255Z,310
2017-06-01T11:13:53.612Z,315
2017-06-01T11:14:54.993Z,315
2017-06-01T11:15:56.243Z,310
2017-06-01T11:16:57.498Z,310
2017-06-01T11:17:58.736Z,305
2017-06-01T11:18:59.995Z,300
2017-06-01T11:20:01.265Z,295
2017-06-01T11:21:02.553Z,290
2017-06-01T11:22:03.805Z,300
2017-06-01T11:23:05.074Z,295
2017-06-01T11:24:06.327Z,295
2017-06-01T11:25:07.697Z,295
2017-06-01T11:26:08.948Z,290
2017-06-01T11:27:10.205Z,290
2017-06-01T11:28:11.484Z,290
2017-06-01T11:29:12.753Z,290
2017-06-01T11:30:13.986Z,285
2017-06-01T11:31:15.325Z,280
2017-06-01T11:32:16.604Z,280
2017-06-01T11:33:17.870Z,285
2017-06-01T11:34:19.132Z,285
2017-06-01T11:35:20.423Z,285
2017-06-01T11:36:21.731Z,285
2017-06-01T11:37:22.996Z,285
2017-06-01T11:38:24.248Z,285
2017-06-01T11:39:25.499Z,290
2017-06-01T11:40:26.768Z,300
2017-06-01T11:41:28.057Z,300
2017-06-01T11:42:29.350Z,305
2017-06-01T11:43:30.581Z,300
2017-06-01T11:44:31.857Z,310
2017-06-01T11:45:33.144Z,315
2017-06-01T11:46:34.407Z,315
2017-06-01T11:47:35.683Z,310
2017-06-01T11:48:36.916Z,305
2017-06-01T11:49:38.195Z,300
2017-06-01T11:50:39.505Z,305
2017-06-01T11:51:40.768Z,300
2017-06-01T11:52:41.998Z,300
2017-06-01T11:53:43.251Z,285
2017-06-01T11:54:44.497Z,280
2017-06-01T11:55:45.750Z,290
2017-06-01T11:56:47.005Z,305
2017-06-01T11:57:48.275Z,320
2017-06-01T11:58:49.530Z,305
2017-06-01T11:59:50.774Z,285
2017-06-01T12:00:52.021Z,290
2017-06-01T12:01:53.371Z,290
2017-06-01T12:02:54.642Z,310
2017-06-01T12:03:55.922Z,285
2017-06-01T12:04:57.241Z,285
2017-06-01T12:05:58.499Z,300
2017-06-01T12:06:59.770Z,305
2017-06-01T12:08:01.018Z,300
2017-06-01T12:09:02.294Z,310
2017-06-01T12:10:03.549Z,320
2017-06-01T12:11:04.796Z,315
2017-06-01T12:12:06.055Z,310
2017-06-01T12:13:07.299Z,310
2017-06-01T12:14:08.602Z,325
2017-06-01T12:15:09.959Z,355
2017-06-01T12:16:11.225Z,365
2017-06-01T12:17:12.508Z,415
2017-06-01T12:18:13.833Z,425
2017-06-01T12:19:15.084Z,385
2017-06-01T12:20:16.355Z,330
2017-06-01T12:21:17.876Z,310
2017-06-01T12:22:19.139Z,295
2017-06-01T12:23:20.388Z,295
2017-06-01T12:24:21.657Z,305
2017-06-01T12:25:22.892Z,300
2017-06-01T12:26:24.217Z,295
2017-06-01T12:27:25.538Z,290
2017-06-01T12:28:26.829Z,285
2017-06-01T12:29:28.058Z,280
2017-06-01T12:30:29.365Z,280
2017-06-01T12:31:30.594Z,280
2017-06-01T12:32:31.865Z,280
2017-06-01T12:33:33.171Z,290
2017-06-01T12:34:34.423Z,290
2017-06-01T12:35:35.718Z,260
2017-06-01T12:36:36.943Z,255
2017-06-01T12:37:38.202Z,255
2017-06-01T12:38:39.455Z,260
2017-06-01T12:39:40.719Z,270
2017-06-01T12:40:42.006Z,275
2017-06-01T12:41:43.256Z,280
2017-06-01T12:42:44.519Z,280
2017-06-01T12:43:45.764Z,275
2017-06-01T12:44:47.021Z,275
2017-06-01T12:45:48.274Z,280
2017-06-01T12:46:49.522Z,285
2017-06-01T12:47:50.774Z,290
2017-06-01T12:48:52.021Z,290
2017-06-01T12:49:53.282Z,300
2017-06-01T12:50:54.533Z,305
2017-06-01T12:51:55.804Z,300
2017-06-01T12:52:57.054Z,295
2017-06-01T12:53:58.312Z,300
2017-06-01T12:54:59.561Z,305
2017-06-01T12:56:00.822Z,315
2017-06-01T12:57:02.083Z,335
2017-06-01T12:58:03.415Z,345
2017-06-01T12:59:04.667Z,335
2017-06-01T13:00:05.968Z,320
2017-06-01T13:01:07.251Z,315
2017-06-01T13:02:08.501Z,310
2017-06-01T13:03:09.796Z,305
2017-06-01T13:04:11.092Z,300
2017-06-01T13:05:12.399Z,290
2017-06-01T13:06:13.713Z,290
2017-06-01T13:07:14.958Z,290
2017-06-01T13:08:16.207Z,290
2017-06-01T13:09:17.518Z,295
2017-06-01T13:10:18.774Z,300
2017-06-01T13:11:20.026Z,300
2017-06-01T13:12:21.275Z,310
2017-06-01T13:13:22.531Z,335
2017-06-01T13:14:23.909Z,345
2017-06-01T13:15:25.202Z,335
2017-06-01T13:16:26.411Z,345
2017-06-01T13:17:27.699Z,330
2017-06-01T13:18:28.961Z,295
2017-06-01T13:19:30.216Z,295
2017-06-01T13:20:31.507Z,295
2017-06-01T13:21:32.766Z,285
2017-06-01T13:22:34.025Z,295
2017-06-01T13:23:35.312Z,315
2017-06-01T13:24:36.559Z,330
2017-06-01T13:25:37.890Z,355
2017-06-01T13:26:39.262Z,355
2017-06-01T13:27:40.417Z,345
2017-06-01T13:28:41.679Z,320
2017-06-01T13:29:42.928Z,300
2017-06-01T13:30:44.227Z,290
2017-06-01T13:31:45.493Z,290
2017-06-01T13:32:46.729Z,290
2017-06-01T13:33:47.994Z,290
2017-06-01T13:34:49.261Z,290
2017-06-01T13:35:50.587Z,285
2017-06-01T13:36:51.869Z,295
2017-06-01T13:37:53.103Z,275
2017-06-01T13:38:54.409Z,270
2017-06-01T13:39:55.680Z,265
2017-06-01T13:40:56.945Z,265
2017-06-01T13:41:58.315Z,270
2017-06-01T13:42:59.583Z,275
2017-06-01T13:44:00.838Z,285
2017-06-01T13:45:02.079Z,285
2017-06-01T13:46:03.437Z,285
2017-06-01T13:47:04.705Z,280
2017-06-01T13:48:05.949Z,280
2017-06-01T13:49:07.198Z,275
2017-06-01T13:50:08.451Z,270
2017-06-01T13:51:09.717Z,270
2017-06-01T13:52:10.979Z,250
2017-06-01T13:53:12.252Z,250
2017-06-01T13:54:13.483Z,245
2017-06-01T13:55:14.733Z,240
2017-06-01T13:56:15.990Z,255
2017-06-01T13:57:17.356Z,260
2017-06-01T13:58:18.598Z,290
2017-06-01T13:59:19.840Z,290
2017-06-01T14:00:21.127Z,260
2017-06-01T14:01:22.391Z,270
2017-06-01T14:02:23.652Z,270
2017-06-01T14:03:24.909Z,245
2017-06-01T14:04:26.150Z,235
2017-06-01T14:05:27.458Z,240
2017-06-01T14:06:28.711Z,245
2017-06-01T14:07:30.004Z,275
2017-06-01T14:08:31.264Z,275